x

Sombrero Key, Fl (smkf1) Weather Station

8:00am - Wed 23rd Jul 2014 All times are CDT. -4 hours from GMT.

  • Wind
    6mph, 7mph gusts
  • Air Temp 86°f
  • Sea Pressure 1018.8mb
  • Sombrero Key, Fl
  • Sombrero Key, Fl

More Historic Weather Station data

Upgrade to MSW Pro to gain access to the past 30 days of data for over 8000 Wavebouys and Weather Stations around the globe.

Join Pro

Comparision Forecast

View Surf forecast
   
Wed 07/23 8:00am 6 7 mph 1018.8mb 86f
7:00am 9 10 mph 1018mb 84f
6:00am 9 10 mph 1017.8mb 84f
5:00am 11 13 mph 1017.5mb 83f
4:00am 8
mph
1017.4mb 83f
3:00am 7 8 mph 1017.8mb 83f
2:00am 8 9 mph 1018.5mb 83f
1:00am 8 9 mph 1018.9mb 83f
12:00am 7 8 mph 1019.3mb 83f
Tue 07/22 11:00pm 6 7 mph 1019.3mb 83f
10:00pm 6 7 mph 1018.7mb 83f
9:00pm 5 6 mph 1018.3mb 84f
8:00pm 5 6 mph 1018.3mb 84f
7:00pm 6 7 mph 1017.9mb 84f
6:00pm 8 10 mph 1018mb 83f
5:00pm 7 8 mph 1017.8mb 83f
4:00pm 2 3 mph 1017.8mb 83f
3:00pm 1
mph
1018.4mb 82f
2:00pm  -  2 mph 1018.3mb 79f
1:00pm 13 14 mph 1019.4mb 79f
12:00pm 7 9 mph 1019.6mb 78f
11:00am 11 13 mph 1019.1mb 80f
10:00am 10 11 mph 1018.7mb 82f
9:00am 7 8 mph 1018.2mb 83f
8:00am 15 16 mph 1017.4mb 82f
7:00am 13 14 mph 1017mb 84f
6:00am 8 9 mph 1016.6mb 84f
5:00am 11 13 mph 1015.8mb 83f
4:00am 10 13 mph 1016.1mb 82f
3:00am 16 17 mph 1016.5mb 82f
2:00am 13 14 mph 1017.2mb 84f
1:00am 11
mph
1017.6mb 84f
12:00am 9 10 mph 1018.2mb 84f
Mon 07/21 11:00pm 6 7 mph 1018.6mb 84f
10:00pm 3 5 mph 1018.2mb 84f
9:00pm 2 3 mph 1017.7mb 84f
8:00pm 2
mph
1017.5mb 84f
7:00pm 5 6 mph 1017.2mb 83f
6:00pm 5 6 mph 1017.5mb 83f
5:00pm 5 6 mph 1017mb 83f
4:00pm 2 3 mph 1017.2mb 84f
3:00pm 5 6 mph 1017.6mb 85f
2:00pm 10
mph
1018.2mb 85f
1:00pm 10 11 mph 1018.2mb 85f
12:00pm 11 13 mph 1018.2mb 84f
11:00am 7
mph
1018.7mb 85f
10:00am 17 18 mph 1018.2mb 84f
9:00am 8 9 mph 1017.9mb 84f
8:00am 9
mph
1017.4mb 83f
7:00am 7 8 mph 1017mb 83f
6:00am 6 7 mph 1016.6mb 82f
5:00am 8 9 mph 1016.4mb 81f
4:00am 2 3 mph 1016.6mb 80f
3:00am 5
mph
1016.8mb 78f
2:00am 2
mph
1017.8mb 76f
1:00am  -  2 mph 1017.9mb 75f
12:00am 31 36 mph 1018.7mb 80f
Sun 07/20 11:00pm 1 2 mph 1018.7mb 86f
10:00pm 5 6 mph 1018.4mb 86f
9:00pm 5 6 mph 1017.8mb 86f
8:00pm 3 5 mph 1017.3mb 87f
7:00pm 5
mph
1017mb 89f
6:00pm 3 5 mph 1016.2mb 89f
5:00pm 2 5 mph 1016.6mb 90f
4:00pm 5
mph
1017mb 89f
3:00pm 3 5 mph 1017.7mb 89f
2:00pm 5 6 mph 1018.3mb 88f
1:00pm 2 3 mph 1018.5mb 87f
12:00pm 2
mph
1018.4mb 87f
11:00am 3 5 mph 1018.7mb 87f
10:00am 7 8 mph 1018.4mb 87f
9:00am 7
mph
1018.3mb 86f
8:00am 8 9 mph 1017.9mb 85f
7:00am 5 6 mph 1017.6mb 84f
6:00am 6
mph
1017.3mb 84f
5:00am 5 6 mph 1016.9mb 84f
4:00am 3 5 mph 1016.6mb 84f
3:00am 6 7 mph 1017mb 84f
2:00am 7
mph
1017.8mb 84f
1:00am 2
mph
1018.8mb 84f
12:00am 6 7 mph 1019.1mb 83f
Sat 07/19 11:00pm 6 7 mph 1019.2mb 83f
10:00pm 5 6 mph 1019.2mb 83f
9:00pm 9 10 mph 1019mb 82f
8:00pm 9 10 mph 1018.3mb 87f
7:00pm 9 10 mph 1017.8mb 87f
6:00pm 9 11 mph 1017.1mb 87f
5:00pm 5 6 mph 1017.5mb 87f
4:00pm 3 6 mph 1017.4mb 86f
3:00pm 5 6 mph 1017.7mb 86f
2:00pm 5
mph
1018.4mb 86f